sensor_id;sensor_type;location;lat;lon;timestamp;temperature;humidity
53748;DHT22;39655;53.210;5.768;2024-03-17T00:01:36;3.80;89.30
53748;DHT22;39655;53.210;5.768;2024-03-17T00:04:01;3.80;89.40
53748;DHT22;39655;53.210;5.768;2024-03-17T00:06:27;3.70;89.40
53748;DHT22;39655;53.210;5.768;2024-03-17T00:08:53;3.70;89.40
53748;DHT22;39655;53.210;5.768;2024-03-17T00:11:20;3.70;89.50
53748;DHT22;39655;53.210;5.768;2024-03-17T00:13:45;3.70;89.60
53748;DHT22;39655;53.210;5.768;2024-03-17T00:16:11;3.60;89.60
53748;DHT22;39655;53.210;5.768;2024-03-17T00:18:38;3.70;89.50
53748;DHT22;39655;53.210;5.768;2024-03-17T00:21:04;3.60;89.40
53748;DHT22;39655;53.210;5.768;2024-03-17T00:23:30;3.60;89.30
53748;DHT22;39655;53.210;5.768;2024-03-17T00:25:55;3.70;89.20
53748;DHT22;39655;53.210;5.768;2024-03-17T00:28:21;3.60;89.20
53748;DHT22;39655;53.210;5.768;2024-03-17T00:30:46;3.60;89.20
53748;DHT22;39655;53.210;5.768;2024-03-17T00:33:12;3.60;89.10
53748;DHT22;39655;53.210;5.768;2024-03-17T00:35:39;3.50;89.10
53748;DHT22;39655;53.210;5.768;2024-03-17T00:38:05;3.50;89.10
53748;DHT22;39655;53.210;5.768;2024-03-17T00:40:36;3.40;89.00
53748;DHT22;39655;53.210;5.768;2024-03-17T00:43:02;3.40;89.00
53748;DHT22;39655;53.210;5.768;2024-03-17T00:45:27;3.30;89.00
53748;DHT22;39655;53.210;5.768;2024-03-17T00:47:53;3.30;89.00
53748;DHT22;39655;53.210;5.768;2024-03-17T00:50:18;3.30;89.10
53748;DHT22;39655;53.210;5.768;2024-03-17T00:52:44;3.20;89.00
53748;DHT22;39655;53.210;5.768;2024-03-17T00:55:09;3.30;89.00
53748;DHT22;39655;53.210;5.768;2024-03-17T00:57:36;3.20;89.00
53748;DHT22;39655;53.210;5.768;2024-03-17T01:00:03;3.20;89.00
53748;DHT22;39655;53.210;5.768;2024-03-17T01:02:28;3.20;89.10
53748;DHT22;39655;53.210;5.768;2024-03-17T01:04:54;3.10;89.20
53748;DHT22;39655;53.210;5.768;2024-03-17T01:07:19;3.10;89.20
53748;DHT22;39655;53.210;5.768;2024-03-17T01:09:46;3.10;89.40
53748;DHT22;39655;53.210;5.768;2024-03-17T01:12:12;3.10;89.40
53748;DHT22;39655;53.210;5.768;2024-03-17T01:14:37;3.00;89.50
53748;DHT22;39655;53.210;5.768;2024-03-17T01:17:03;3.00;89.50
53748;DHT22;39655;53.210;5.768;2024-03-17T01:19:32;3.00;89.60
53748;DHT22;39655;53.210;5.768;2024-03-17T01:21:59;3.00;89.70
53748;DHT22;39655;53.210;5.768;2024-03-17T01:24:25;3.00;89.70
53748;DHT22;39655;53.210;5.768;2024-03-17T01:26:53;2.90;89.70
53748;DHT22;39655;53.210;5.768;2024-03-17T01:29:19;2.90;89.80
53748;DHT22;39655;53.210;5.768;2024-03-17T01:31:44;2.90;89.80
53748;DHT22;39655;53.210;5.768;2024-03-17T01:34:10;2.90;89.80
53748;DHT22;39655;53.210;5.768;2024-03-17T01:36:36;2.90;89.80
53748;DHT22;39655;53.210;5.768;2024-03-17T01:39:02;2.90;89.90
53748;DHT22;39655;53.210;5.768;2024-03-17T01:41:28;2.90;89.90
53748;DHT22;39655;53.210;5.768;2024-03-17T01:43:53;2.90;90.00
53748;DHT22;39655;53.210;5.768;2024-03-17T01:46:19;2.80;90.00
53748;DHT22;39655;53.210;5.768;2024-03-17T01:48:45;2.90;90.00
53748;DHT22;39655;53.210;5.768;2024-03-17T01:51:11;2.90;90.10
53748;DHT22;39655;53.210;5.768;2024-03-17T01:53:38;3.00;89.90
53748;DHT22;39655;53.210;5.768;2024-03-17T01:56:07;3.00;90.00
53748;DHT22;39655;53.210;5.768;2024-03-17T01:58:33;3.10;90.20
53748;DHT22;39655;53.210;5.768;2024-03-17T02:00:59;3.20;90.20
53748;DHT22;39655;53.210;5.768;2024-03-17T02:03:25;3.30;90.40
53748;DHT22;39655;53.210;5.768;2024-03-17T02:05:51;3.40;90.50
53748;DHT22;39655;53.210;5.768;2024-03-17T02:08:16;3.60;90.60
53748;DHT22;39655;53.210;5.768;2024-03-17T02:10:43;3.80;90.50
53748;DHT22;39655;53.210;5.768;2024-03-17T02:13:08;3.90;90.30
53748;DHT22;39655;53.210;5.768;2024-03-17T02:15:34;4.10;90.10
53748;DHT22;39655;53.210;5.768;2024-03-17T02:18:02;4.20;89.80
53748;DHT22;39655;53.210;5.768;2024-03-17T02:20:28;4.30;89.50
53748;DHT22;39655;53.210;5.768;2024-03-17T02:23:12;4.40;89.30
53748;DHT22;39655;53.210;5.768;2024-03-17T02:25:38;4.50;89.00
53748;DHT22;39655;53.210;5.768;2024-03-17T02:28:03;4.60;88.90
53748;DHT22;39655;53.210;5.768;2024-03-17T02:30:30;4.70;88.70
53748;DHT22;39655;53.210;5.768;2024-03-17T02:32:55;4.70;88.50
53748;DHT22;39655;53.210;5.768;2024-03-17T02:35:24;4.80;88.40
53748;DHT22;39655;53.210;5.768;2024-03-17T02:37:50;4.80;88.30
53748;DHT22;39655;53.210;5.768;2024-03-17T02:40:15;4.80;88.20
53748;DHT22;39655;53.210;5.768;2024-03-17T02:42:44;4.90;88.00
53748;DHT22;39655;53.210;5.768;2024-03-17T02:45:10;4.90;88.00
53748;DHT22;39655;53.210;5.768;2024-03-17T02:47:37;5.00;87.80
53748;DHT22;39655;53.210;5.768;2024-03-17T02:50:02;5.10;87.70
53748;DHT22;39655;53.210;5.768;2024-03-17T02:52:32;5.10;87.60
53748;DHT22;39655;53.210;5.768;2024-03-17T02:54:57;5.10;87.50
53748;DHT22;39655;53.210;5.768;2024-03-17T02:57:23;5.20;87.50
53748;DHT22;39655;53.210;5.768;2024-03-17T02:59:56;5.20;87.60
53748;DHT22;39655;53.210;5.768;2024-03-17T03:02:22;5.20;88.00
53748;DHT22;39655;53.210;5.768;2024-03-17T03:04:47;5.20;87.70
53748;DHT22;39655;53.210;5.768;2024-03-17T03:07:13;5.40;87.80
53748;DHT22;39655;53.210;5.768;2024-03-17T03:09:39;5.40;87.90
53748;DHT22;39655;53.210;5.768;2024-03-17T03:12:05;5.40;87.90
53748;DHT22;39655;53.210;5.768;2024-03-17T03:14:33;5.40;87.80
53748;DHT22;39655;53.210;5.768;2024-03-17T03:16:58;5.40;87.90
53748;DHT22;39655;53.210;5.768;2024-03-17T03:19:25;5.40;87.80
53748;DHT22;39655;53.210;5.768;2024-03-17T03:21:51;5.40;87.60
53748;DHT22;39655;53.210;5.768;2024-03-17T03:24:16;5.40;87.70
53748;DHT22;39655;53.210;5.768;2024-03-17T03:26:42;5.40;87.90
53748;DHT22;39655;53.210;5.768;2024-03-17T03:29:09;5.40;87.80
53748;DHT22;39655;53.210;5.768;2024-03-17T03:31:35;5.40;87.80
53748;DHT22;39655;53.210;5.768;2024-03-17T03:34:01;5.40;88.00
53748;DHT22;39655;53.210;5.768;2024-03-17T03:36:27;5.40;88.20
53748;DHT22;39655;53.210;5.768;2024-03-17T03:38:52;5.40;88.00
53748;DHT22;39655;53.210;5.768;2024-03-17T03:41:18;5.40;88.00
53748;DHT22;39655;53.210;5.768;2024-03-17T03:43:44;5.40;88.20
53748;DHT22;39655;53.210;5.768;2024-03-17T03:46:12;5.50;88.00
53748;DHT22;39655;53.210;5.768;2024-03-17T03:48:37;5.50;88.30
53748;DHT22;39655;53.210;5.768;2024-03-17T03:51:03;5.50;88.20
53748;DHT22;39655;53.210;5.768;2024-03-17T03:53:30;5.60;88.20
53748;DHT22;39655;53.210;5.768;2024-03-17T03:55:56;5.60;88.30
53748;DHT22;39655;53.210;5.768;2024-03-17T03:58:21;5.60;88.20
53748;DHT22;39655;53.210;5.768;2024-03-17T04:00:47;5.60;88.20
53748;DHT22;39655;53.210;5.768;2024-03-17T04:03:12;5.60;88.50
53748;DHT22;39655;53.210;5.768;2024-03-17T04:05:38;5.70;88.60
53748;DHT22;39655;53.210;5.768;2024-03-17T04:08:04;5.70;88.50
53748;DHT22;39655;53.210;5.768;2024-03-17T04:10:32;5.70;88.40
53748;DHT22;39655;53.210;5.768;2024-03-17T04:12:58;5.70;88.20
53748;DHT22;39655;53.210;5.768;2024-03-17T04:15:23;5.70;88.00
53748;DHT22;39655;53.210;5.768;2024-03-17T04:17:49;5.70;88.20
53748;DHT22;39655;53.210;5.768;2024-03-17T04:20:14;5.70;88.20
53748;DHT22;39655;53.210;5.768;2024-03-17T04:22:40;5.80;87.90
53748;DHT22;39655;53.210;5.768;2024-03-17T04:25:06;5.80;87.80
53748;DHT22;39655;53.210;5.768;2024-03-17T04:27:32;5.80;87.80
53748;DHT22;39655;53.210;5.768;2024-03-17T04:29:58;5.80;87.60
53748;DHT22;39655;53.210;5.768;2024-03-17T04:32:24;5.80;87.80
53748;DHT22;39655;53.210;5.768;2024-03-17T04:34:50;5.80;87.70
53748;DHT22;39655;53.210;5.768;2024-03-17T04:37:16;5.70;87.60
53748;DHT22;39655;53.210;5.768;2024-03-17T04:39:42;5.70;87.60
53748;DHT22;39655;53.210;5.768;2024-03-17T04:42:11;5.70;87.50
53748;DHT22;39655;53.210;5.768;2024-03-17T04:44:36;5.80;87.60
53748;DHT22;39655;53.210;5.768;2024-03-17T04:47:02;5.70;87.50
53748;DHT22;39655;53.210;5.768;2024-03-17T04:49:42;5.70;87.50
53748;DHT22;39655;53.210;5.768;2024-03-17T04:52:08;5.70;87.40
53748;DHT22;39655;53.210;5.768;2024-03-17T04:54:34;5.70;87.60
53748;DHT22;39655;53.210;5.768;2024-03-17T04:57:00;5.70;87.70
53748;DHT22;39655;53.210;5.768;2024-03-17T04:59:25;5.70;87.90
53748;DHT22;39655;53.210;5.768;2024-03-17T05:01:51;5.70;87.90
53748;DHT22;39655;53.210;5.768;2024-03-17T05:04:17;5.70;87.90
53748;DHT22;39655;53.210;5.768;2024-03-17T05:06:42;5.70;88.00
53748;DHT22;39655;53.210;5.768;2024-03-17T05:09:14;5.70;88.20
53748;DHT22;39655;53.210;5.768;2024-03-17T05:11:40;5.70;87.90
53748;DHT22;39655;53.210;5.768;2024-03-17T05:14:07;5.70;88.30
53748;DHT22;39655;53.210;5.768;2024-03-17T05:16:32;5.70;88.30
53748;DHT22;39655;53.210;5.768;2024-03-17T05:18:58;5.70;88.20
53748;DHT22;39655;53.210;5.768;2024-03-17T05:21:23;5.70;88.30
53748;DHT22;39655;53.210;5.768;2024-03-17T05:23:49;5.70;88.60
53748;DHT22;39655;53.210;5.768;2024-03-17T05:26:15;5.70;88.40
53748;DHT22;39655;53.210;5.768;2024-03-17T05:28:40;5.70;88.30
53748;DHT22;39655;53.210;5.768;2024-03-17T05:31:06;5.70;88.30
53748;DHT22;39655;53.210;5.768;2024-03-17T05:33:32;5.70;88.30
53748;DHT22;39655;53.210;5.768;2024-03-17T05:35:58;5.70;88.50
53748;DHT22;39655;53.210;5.768;2024-03-17T05:38:24;5.70;88.40
53748;DHT22;39655;53.210;5.768;2024-03-17T05:41:11;5.70;88.20
53748;DHT22;39655;53.210;5.768;2024-03-17T05:43:36;5.70;88.30
53748;DHT22;39655;53.210;5.768;2024-03-17T05:46:03;5.70;88.40
53748;DHT22;39655;53.210;5.768;2024-03-17T05:48:34;5.70;88.40
53748;DHT22;39655;53.210;5.768;2024-03-17T05:51:03;5.70;88.50
53748;DHT22;39655;53.210;5.768;2024-03-17T05:53:29;5.70;88.40
53748;DHT22;39655;53.210;5.768;2024-03-17T05:56:03;5.70;88.30
53748;DHT22;39655;53.210;5.768;2024-03-17T05:58:29;5.70;88.40
53748;DHT22;39655;53.210;5.768;2024-03-17T06:00:54;5.70;88.40
53748;DHT22;39655;53.210;5.768;2024-03-17T06:03:20;5.70;88.30
53748;DHT22;39655;53.210;5.768;2024-03-17T06:05:47;5.70;88.30
53748;DHT22;39655;53.210;5.768;2024-03-17T06:08:13;5.70;88.40
53748;DHT22;39655;53.210;5.768;2024-03-17T06:10:43;5.70;88.40
53748;DHT22;39655;53.210;5.768;2024-03-17T06:13:08;5.70;88.40
53748;DHT22;39655;53.210;5.768;2024-03-17T06:15:37;5.70;88.30
53748;DHT22;39655;53.210;5.768;2024-03-17T06:18:03;5.80;88.30
53748;DHT22;39655;53.210;5.768;2024-03-17T06:20:28;5.70;88.30
53748;DHT22;39655;53.210;5.768;2024-03-17T06:22:54;5.80;88.30
53748;DHT22;39655;53.210;5.768;2024-03-17T06:25:20;5.90;88.30
53748;DHT22;39655;53.210;5.768;2024-03-17T06:27:54;5.90;88.20
53748;DHT22;39655;53.210;5.768;2024-03-17T06:30:22;6.00;88.00
53748;DHT22;39655;53.210;5.768;2024-03-17T06:32:47;6.00;87.90
53748;DHT22;39655;53.210;5.768;2024-03-17T06:35:13;6.10;87.70
53748;DHT22;39655;53.210;5.768;2024-03-17T06:37:45;6.10;87.50
53748;DHT22;39655;53.210;5.768;2024-03-17T06:40:14;6.20;87.40
53748;DHT22;39655;53.210;5.768;2024-03-17T06:42:40;6.20;87.20
53748;DHT22;39655;53.210;5.768;2024-03-17T06:45:06;6.20;87.00
53748;DHT22;39655;53.210;5.768;2024-03-17T06:47:35;6.20;87.00
53748;DHT22;39655;53.210;5.768;2024-03-17T06:50:02;6.30;86.90
53748;DHT22;39655;53.210;5.768;2024-03-17T06:52:28;6.30;86.90
53748;DHT22;39655;53.210;5.768;2024-03-17T06:54:54;6.30;86.80
53748;DHT22;39655;53.210;5.768;2024-03-17T06:57:19;6.40;86.90
53748;DHT22;39655;53.210;5.768;2024-03-17T06:59:45;6.40;86.80
53748;DHT22;39655;53.210;5.768;2024-03-17T07:02:11;6.50;86.70
53748;DHT22;39655;53.210;5.768;2024-03-17T07:04:41;6.60;86.60
53748;DHT22;39655;53.210;5.768;2024-03-17T07:07:06;6.60;86.50
53748;DHT22;39655;53.210;5.768;2024-03-17T07:09:32;6.60;86.40
53748;DHT22;39655;53.210;5.768;2024-03-17T07:11:57;6.70;86.20
53748;DHT22;39655;53.210;5.768;2024-03-17T07:14:23;6.70;86.10
53748;DHT22;39655;53.210;5.768;2024-03-17T07:16:51;6.70;86.00
53748;DHT22;39655;53.210;5.768;2024-03-17T07:19:17;6.80;86.10
53748;DHT22;39655;53.210;5.768;2024-03-17T07:21:43;6.90;86.00
53748;DHT22;39655;53.210;5.768;2024-03-17T07:24:08;7.00;85.90
53748;DHT22;39655;53.210;5.768;2024-03-17T07:26:34;7.00;85.40
53748;DHT22;39655;53.210;5.768;2024-03-17T07:29:00;7.10;85.00
53748;DHT22;39655;53.210;5.768;2024-03-17T07:31:25;7.10;84.90
53748;DHT22;39655;53.210;5.768;2024-03-17T07:33:51;7.20;85.00
53748;DHT22;39655;53.210;5.768;2024-03-17T07:36:17;7.30;85.10
53748;DHT22;39655;53.210;5.768;2024-03-17T07:38:42;7.40;85.30
53748;DHT22;39655;53.210;5.768;2024-03-17T07:41:08;7.40;85.00
53748;DHT22;39655;53.210;5.768;2024-03-17T07:43:36;7.50;84.40
53748;DHT22;39655;53.210;5.768;2024-03-17T07:46:09;7.60;84.30
53748;DHT22;39655;53.210;5.768;2024-03-17T07:48:41;7.60;83.80
53748;DHT22;39655;53.210;5.768;2024-03-17T07:51:08;7.70;84.00
53748;DHT22;39655;53.210;5.768;2024-03-17T07:53:34;7.80;83.80
53748;DHT22;39655;53.210;5.768;2024-03-17T07:56:00;7.80;83.30
53748;DHT22;39655;53.210;5.768;2024-03-17T07:58:26;7.90;83.50
53748;DHT22;39655;53.210;5.768;2024-03-17T08:00:52;7.90;83.20
53748;DHT22;39655;53.210;5.768;2024-03-17T08:03:18;8.00;83.40
53748;DHT22;39655;53.210;5.768;2024-03-17T08:05:47;8.00;83.00
53748;DHT22;39655;53.210;5.768;2024-03-17T08:08:13;8.00;82.80
53748;DHT22;39655;53.210;5.768;2024-03-17T08:10:39;8.10;82.80
53748;DHT22;39655;53.210;5.768;2024-03-17T08:13:04;8.10;82.90
53748;DHT22;39655;53.210;5.768;2024-03-17T08:15:30;8.10;82.90
53748;DHT22;39655;53.210;5.768;2024-03-17T08:17:56;8.20;82.80
53748;DHT22;39655;53.210;5.768;2024-03-17T08:20:21;8.10;82.40
53748;DHT22;39655;53.210;5.768;2024-03-17T08:22:47;8.20;82.20
53748;DHT22;39655;53.210;5.768;2024-03-17T08:25:12;8.30;82.00
53748;DHT22;39655;53.210;5.768;2024-03-17T08:27:38;8.40;81.60
53748;DHT22;39655;53.210;5.768;2024-03-17T08:30:03;8.50;81.40
53748;DHT22;39655;53.210;5.768;2024-03-17T08:32:29;8.60;81.50
53748;DHT22;39655;53.210;5.768;2024-03-17T08:34:55;8.60;81.10
53748;DHT22;39655;53.210;5.768;2024-03-17T08:37:20;8.70;81.60
53748;DHT22;39655;53.210;5.768;2024-03-17T08:39:46;8.80;81.70
53748;DHT22;39655;53.210;5.768;2024-03-17T08:42:12;8.90;81.20
53748;DHT22;39655;53.210;5.768;2024-03-17T08:44:38;9.00;81.30
53748;DHT22;39655;53.210;5.768;2024-03-17T08:47:06;9.20;81.40
53748;DHT22;39655;53.210;5.768;2024-03-17T08:49:31;9.30;80.20
53748;DHT22;39655;53.210;5.768;2024-03-17T08:51:57;9.40;80.00
53748;DHT22;39655;53.210;5.768;2024-03-17T08:54:22;9.60;80.60
53748;DHT22;39655;53.210;5.768;2024-03-17T08:56:48;9.70;79.90
53748;DHT22;39655;53.210;5.768;2024-03-17T08:59:14;9.60;79.40
53748;DHT22;39655;53.210;5.768;2024-03-17T09:01:40;9.60;79.40
53748;DHT22;39655;53.210;5.768;2024-03-17T09:04:05;9.60;79.30
53748;DHT22;39655;53.210;5.768;2024-03-17T09:06:31;9.80;80.00
53748;DHT22;39655;53.210;5.768;2024-03-17T09:08:57;9.80;78.60
53748;DHT22;39655;53.210;5.768;2024-03-17T09:11:23;9.90;79.00
53748;DHT22;39655;53.210;5.768;2024-03-17T09:13:50;9.90;78.10
53748;DHT22;39655;53.210;5.768;2024-03-17T09:16:16;10.10;79.30
53748;DHT22;39655;53.210;5.768;2024-03-17T09:18:43;10.30;79.00
53748;DHT22;39655;53.210;5.768;2024-03-17T09:21:09;10.50;78.20
53748;DHT22;39655;53.210;5.768;2024-03-17T09:23:35;10.60;76.90
53748;DHT22;39655;53.210;5.768;2024-03-17T09:26:05;10.60;77.40
53748;DHT22;39655;53.210;5.768;2024-03-17T09:28:31;10.60;77.80
53748;DHT22;39655;53.210;5.768;2024-03-17T09:30:57;10.60;76.70
53748;DHT22;39655;53.210;5.768;2024-03-17T09:33:24;10.70;77.30
53748;DHT22;39655;53.210;5.768;2024-03-17T09:35:56;10.60;76.80
53748;DHT22;39655;53.210;5.768;2024-03-17T09:38:22;10.60;76.60
53748;DHT22;39655;53.210;5.768;2024-03-17T09:40:48;10.50;77.10
53748;DHT22;39655;53.210;5.768;2024-03-17T09:43:16;10.60;77.10
53748;DHT22;39655;53.210;5.768;2024-03-17T09:45:42;10.50;76.90
53748;DHT22;39655;53.210;5.768;2024-03-17T09:48:07;10.50;77.60
53748;DHT22;39655;53.210;5.768;2024-03-17T09:50:36;10.50;78.50
53748;DHT22;39655;53.210;5.768;2024-03-17T09:53:01;10.50;77.60
53748;DHT22;39655;53.210;5.768;2024-03-17T09:55:27;10.50;77.20
53748;DHT22;39655;53.210;5.768;2024-03-17T09:57:53;10.40;77.20
53748;DHT22;39655;53.210;5.768;2024-03-17T10:00:18;10.40;77.10
53748;DHT22;39655;53.210;5.768;2024-03-17T10:02:44;10.30;77.40
53748;DHT22;39655;53.210;5.768;2024-03-17T10:07:46;10.30;77.70
53748;DHT22;39655;53.210;5.768;2024-03-17T10:10:12;10.30;78.10
53748;DHT22;39655;53.210;5.768;2024-03-17T10:12:38;10.30;78.00
53748;DHT22;39655;53.210;5.768;2024-03-17T10:15:03;10.20;77.80
53748;DHT22;39655;53.210;5.768;2024-03-17T10:17:33;10.20;77.90
53748;DHT22;39655;53.210;5.768;2024-03-17T10:25:28;10.40;77.90
53748;DHT22;39655;53.210;5.768;2024-03-17T10:27:54;10.60;77.20
53748;DHT22;39655;53.210;5.768;2024-03-17T10:30:20;10.70;77.60
53748;DHT22;39655;53.210;5.768;2024-03-17T10:32:54;10.80;77.40
53748;DHT22;39655;53.210;5.768;2024-03-17T10:35:26;10.90;77.00
53748;DHT22;39655;53.210;5.768;2024-03-17T10:38:05;10.90;76.80
53748;DHT22;39655;53.210;5.768;2024-03-17T10:40:31;10.90;76.40
53748;DHT22;39655;53.210;5.768;2024-03-17T10:43:00;10.90;76.40
53748;DHT22;39655;53.210;5.768;2024-03-17T10:45:26;10.90;76.70
53748;DHT22;39655;53.210;5.768;2024-03-17T10:47:52;11.00;76.10
53748;DHT22;39655;53.210;5.768;2024-03-17T10:50:18;11.10;75.90
53748;DHT22;39655;53.210;5.768;2024-03-17T10:52:44;11.20;75.60
53748;DHT22;39655;53.210;5.768;2024-03-17T10:55:20;11.40;76.10
53748;DHT22;39655;53.210;5.768;2024-03-17T10:57:47;11.70;75.60
53748;DHT22;39655;53.210;5.768;2024-03-17T11:00:14;11.90;74.80
53748;DHT22;39655;53.210;5.768;2024-03-17T11:02:43;12.20;73.00
53748;DHT22;39655;53.210;5.768;2024-03-17T11:05:23;12.50;73.50
53748;DHT22;39655;53.210;5.768;2024-03-17T11:07:50;12.70;71.90
53748;DHT22;39655;53.210;5.768;2024-03-17T11:10:18;13.00;71.60
53748;DHT22;39655;53.210;5.768;2024-03-17T11:17:48;13.70;70.90
53748;DHT22;39655;53.210;5.768;2024-03-17T11:20:21;13.70;68.70
53748;DHT22;39655;53.210;5.768;2024-03-17T11:22:51;13.70;68.30
53748;DHT22;39655;53.210;5.768;2024-03-17T11:28:08;13.50;66.60
53748;DHT22;39655;53.210;5.768;2024-03-17T11:35:49;14.10;68.00
53748;DHT22;39655;53.210;5.768;2024-03-17T11:43:43;14.10;66.40
53748;DHT22;39655;53.210;5.768;2024-03-17T11:46:10;14.10;66.40
53748;DHT22;39655;53.210;5.768;2024-03-17T11:48:36;14.20;65.80
53748;DHT22;39655;53.210;5.768;2024-03-17T11:51:02;14.30;66.00
53748;DHT22;39655;53.210;5.768;2024-03-17T11:53:29;14.40;64.20
53748;DHT22;39655;53.210;5.768;2024-03-17T11:55:55;14.50;65.50
53748;DHT22;39655;53.210;5.768;2024-03-17T11:58:20;14.40;64.80
53748;DHT22;39655;53.210;5.768;2024-03-17T12:00:53;14.20;64.40
53748;DHT22;39655;53.210;5.768;2024-03-17T12:03:19;14.10;64.30
53748;DHT22;39655;53.210;5.768;2024-03-17T12:05:45;14.10;64.80
53748;DHT22;39655;53.210;5.768;2024-03-17T12:08:19;14.10;65.30
53748;DHT22;39655;53.210;5.768;2024-03-17T12:10:48;14.10;65.10
53748;DHT22;39655;53.210;5.768;2024-03-17T12:13:14;14.00;62.70
53748;DHT22;39655;53.210;5.768;2024-03-17T12:15:39;14.10;62.30
53748;DHT22;39655;53.210;5.768;2024-03-17T12:18:18;14.30;63.20
53748;DHT22;39655;53.210;5.768;2024-03-17T12:20:46;14.30;62.50
53748;DHT22;39655;53.210;5.768;2024-03-17T12:23:13;14.30;63.80
53748;DHT22;39655;53.210;5.768;2024-03-17T12:25:42;14.10;62.30
53748;DHT22;39655;53.210;5.768;2024-03-17T12:28:15;14.10;62.90
53748;DHT22;39655;53.210;5.768;2024-03-17T12:30:41;14.10;63.00
53748;DHT22;39655;53.210;5.768;2024-03-17T12:33:08;14.30;64.00
53748;DHT22;39655;53.210;5.768;2024-03-17T12:35:36;14.40;62.70
53748;DHT22;39655;53.210;5.768;2024-03-17T12:38:01;14.50;62.50
53748;DHT22;39655;53.210;5.768;2024-03-17T12:40:27;14.60;63.30
53748;DHT22;39655;53.210;5.768;2024-03-17T12:42:54;14.70;61.60
53748;DHT22;39655;53.210;5.768;2024-03-17T12:45:23;14.80;62.00
53748;DHT22;39655;53.210;5.768;2024-03-17T12:47:49;14.80;61.90
53748;DHT22;39655;53.210;5.768;2024-03-17T12:50:15;14.80;62.00
53748;DHT22;39655;53.210;5.768;2024-03-17T12:52:40;14.60;62.00
53748;DHT22;39655;53.210;5.768;2024-03-17T12:55:06;14.50;62.10
53748;DHT22;39655;53.210;5.768;2024-03-17T12:57:51;14.30;62.80
53748;DHT22;39655;53.210;5.768;2024-03-17T13:00:36;14.20;62.10
53748;DHT22;39655;53.210;5.768;2024-03-17T13:03:02;14.20;63.20
53748;DHT22;39655;53.210;5.768;2024-03-17T13:05:28;14.20;62.90
53748;DHT22;39655;53.210;5.768;2024-03-17T13:07:55;14.20;63.60
53748;DHT22;39655;53.210;5.768;2024-03-17T13:10:22;14.20;63.50
53748;DHT22;39655;53.210;5.768;2024-03-17T13:12:48;14.20;63.70
53748;DHT22;39655;53.210;5.768;2024-03-17T13:15:15;14.20;63.10
53748;DHT22;39655;53.210;5.768;2024-03-17T13:17:41;14.00;63.10
53748;DHT22;39655;53.210;5.768;2024-03-17T13:20:08;13.90;63.20
53748;DHT22;39655;53.210;5.768;2024-03-17T13:22:37;13.70;64.10
53748;DHT22;39655;53.210;5.768;2024-03-17T13:25:04;13.70;64.40
53748;DHT22;39655;53.210;5.768;2024-03-17T13:27:31;13.60;63.70
53748;DHT22;39655;53.210;5.768;2024-03-17T13:29:56;13.60;63.60
53748;DHT22;39655;53.210;5.768;2024-03-17T13:32:22;13.50;63.80
53748;DHT22;39655;53.210;5.768;2024-03-17T13:34:47;13.50;64.20
53748;DHT22;39655;53.210;5.768;2024-03-17T13:37:13;13.50;64.10
53748;DHT22;39655;53.210;5.768;2024-03-17T13:39:38;13.40;64.60
53748;DHT22;39655;53.210;5.768;2024-03-17T13:42:04;13.40;64.30
53748;DHT22;39655;53.210;5.768;2024-03-17T13:44:30;13.50;64.70
53748;DHT22;39655;53.210;5.768;2024-03-17T13:46:56;13.50;63.80
53748;DHT22;39655;53.210;5.768;2024-03-17T13:49:22;13.50;65.00
53748;DHT22;39655;53.210;5.768;2024-03-17T13:51:48;13.50;64.40
53748;DHT22;39655;53.210;5.768;2024-03-17T13:54:13;13.50;64.70
53748;DHT22;39655;53.210;5.768;2024-03-17T13:56:40;13.50;63.80
53748;DHT22;39655;53.210;5.768;2024-03-17T13:59:05;13.50;64.60
53748;DHT22;39655;53.210;5.768;2024-03-17T14:01:31;13.40;63.80
53748;DHT22;39655;53.210;5.768;2024-03-17T14:03:56;13.40;64.30
53748;DHT22;39655;53.210;5.768;2024-03-17T14:06:22;13.30;64.60
53748;DHT22;39655;53.210;5.768;2024-03-17T14:08:47;13.30;64.20
53748;DHT22;39655;53.210;5.768;2024-03-17T14:11:13;13.20;64.90
53748;DHT22;39655;53.210;5.768;2024-03-17T14:13:38;13.20;64.70
53748;DHT22;39655;53.210;5.768;2024-03-17T14:16:04;13.20;64.80
53748;DHT22;39655;53.210;5.768;2024-03-17T14:18:33;13.20;65.10
53748;DHT22;39655;53.210;5.768;2024-03-17T14:20:58;13.20;65.50
53748;DHT22;39655;53.210;5.768;2024-03-17T14:23:24;13.20;64.80
53748;DHT22;39655;53.210;5.768;2024-03-17T14:25:50;13.10;64.80
53748;DHT22;39655;53.210;5.768;2024-03-17T14:28:15;13.10;64.90
53748;DHT22;39655;53.210;5.768;2024-03-17T14:30:41;13.20;65.40
53748;DHT22;39655;53.210;5.768;2024-03-17T14:33:06;13.20;64.80
53748;DHT22;39655;53.210;5.768;2024-03-17T14:35:33;13.20;64.20
53748;DHT22;39655;53.210;5.768;2024-03-17T14:37:58;13.30;65.20
53748;DHT22;39655;53.210;5.768;2024-03-17T14:40:24;13.40;65.10
53748;DHT22;39655;53.210;5.768;2024-03-17T14:42:50;13.40;64.60
53748;DHT22;39655;53.210;5.768;2024-03-17T14:45:17;13.30;64.50
53748;DHT22;39655;53.210;5.768;2024-03-17T14:47:42;13.40;64.50
53748;DHT22;39655;53.210;5.768;2024-03-17T14:50:10;13.30;63.80
53748;DHT22;39655;53.210;5.768;2024-03-17T14:52:37;13.20;63.90
53748;DHT22;39655;53.210;5.768;2024-03-17T14:55:03;13.20;64.20
53748;DHT22;39655;53.210;5.768;2024-03-17T14:57:30;13.20;64.30
53748;DHT22;39655;53.210;5.768;2024-03-17T14:59:55;13.20;64.40
53748;DHT22;39655;53.210;5.768;2024-03-17T15:02:21;13.10;64.90
53748;DHT22;39655;53.210;5.768;2024-03-17T15:04:47;13.10;64.90
53748;DHT22;39655;53.210;5.768;2024-03-17T15:07:12;13.10;65.00
53748;DHT22;39655;53.210;5.768;2024-03-17T15:09:38;13.00;64.90
53748;DHT22;39655;53.210;5.768;2024-03-17T15:12:03;13.00;65.00
53748;DHT22;39655;53.210;5.768;2024-03-17T15:14:29;12.90;64.70
53748;DHT22;39655;53.210;5.768;2024-03-17T15:16:57;12.90;64.90
53748;DHT22;39655;53.210;5.768;2024-03-17T15:19:22;12.80;65.00
53748;DHT22;39655;53.210;5.768;2024-03-17T15:21:48;12.80;65.20
53748;DHT22;39655;53.210;5.768;2024-03-17T15:24:13;12.80;65.30
53748;DHT22;39655;53.210;5.768;2024-03-17T15:26:39;12.70;65.90
53748;DHT22;39655;53.210;5.768;2024-03-17T15:29:04;12.70;65.40
53748;DHT22;39655;53.210;5.768;2024-03-17T15:31:30;12.70;66.10
53748;DHT22;39655;53.210;5.768;2024-03-17T15:33:56;12.60;65.80
53748;DHT22;39655;53.210;5.768;2024-03-17T15:36:22;12.60;66.00
53748;DHT22;39655;53.210;5.768;2024-03-17T15:38:49;12.60;66.10
53748;DHT22;39655;53.210;5.768;2024-03-17T15:41:15;12.60;66.30
53748;DHT22;39655;53.210;5.768;2024-03-17T15:43:41;12.50;66.10
53748;DHT22;39655;53.210;5.768;2024-03-17T15:46:14;12.50;66.60
53748;DHT22;39655;53.210;5.768;2024-03-17T15:48:40;12.50;66.60
53748;DHT22;39655;53.210;5.768;2024-03-17T15:51:06;12.40;66.40
53748;DHT22;39655;53.210;5.768;2024-03-17T15:53:32;12.40;66.70
53748;DHT22;39655;53.210;5.768;2024-03-17T15:55:58;12.40;67.10
53748;DHT22;39655;53.210;5.768;2024-03-17T15:58:24;12.40;67.20
53748;DHT22;39655;53.210;5.768;2024-03-17T16:00:50;12.30;67.50
53748;DHT22;39655;53.210;5.768;2024-03-17T16:03:16;12.30;67.30